createdAt,value
2024-05-09T00:00:41.508Z,10.80
2024-05-09T00:03:10.770Z,11.02
2024-05-09T00:05:41.259Z,11.30
2024-05-09T00:08:09.883Z,11.02
2024-05-09T00:10:39.152Z,11.85
2024-05-09T00:13:08.538Z,10.07
2024-05-09T00:15:36.700Z,11.00
2024-05-09T00:18:05.844Z,11.18
2024-05-09T00:20:38.721Z,11.20
2024-05-09T00:23:09.475Z,10.50
2024-05-09T00:25:37.668Z,11.38
2024-05-09T00:28:05.108Z,11.52
2024-05-09T00:30:35.592Z,10.43
2024-05-09T00:33:09.301Z,10.63
2024-05-09T00:38:05.364Z,11.77
2024-05-09T00:40:40.861Z,11.77
2024-05-09T00:43:11.247Z,11.18
2024-05-09T00:45:38.955Z,11.20
2024-05-09T00:48:09.427Z,11.52
2024-05-09T00:50:41.657Z,12.02
2024-05-09T00:53:12.052Z,12.15
2024-05-09T00:55:40.476Z,11.60
2024-05-09T00:58:11.188Z,11.23
2024-05-09T01:00:40.654Z,11.93
2024-05-09T01:03:12.133Z,12.63
2024-05-09T01:05:41.457Z,12.45
2024-05-09T01:08:10.253Z,12.05
2024-05-09T01:10:38.519Z,12.40
2024-05-09T01:13:07.058Z,11.90
2024-05-09T01:15:35.890Z,11.88
2024-05-09T01:18:11.657Z,12.32
2024-05-09T01:20:43.164Z,12.85
2024-05-09T01:23:14.566Z,13.20
2024-05-09T01:25:43.819Z,11.88
2024-05-09T01:28:11.497Z,12.13
2024-05-09T01:30:41.639Z,12.43
2024-05-09T01:33:10.747Z,12.70
2024-05-09T01:35:41.690Z,12.27
2024-05-09T01:38:12.824Z,12.55
2024-05-09T01:40:40.601Z,13.35
2024-05-09T01:43:10.048Z,13.98
2024-05-09T01:45:38.808Z,12.43
2024-05-09T01:48:06.828Z,13.23
2024-05-09T01:50:39.388Z,11.75
2024-05-09T01:53:10.451Z,12.77
2024-05-09T01:55:37.955Z,12.02
2024-05-09T01:58:05.553Z,11.55
2024-05-09T02:00:39.184Z,12.38
2024-05-09T02:03:12.320Z,12.65
2024-05-09T02:05:43.066Z,13.25
2024-05-09T02:08:17.568Z,13.68
2024-05-09T02:10:46.020Z,14.50
2024-05-09T02:13:13.884Z,12.13
2024-05-09T02:15:41.144Z,13.45
2024-05-09T02:18:09.156Z,14.45
2024-05-09T02:20:39.693Z,13.90
2024-05-09T02:23:07.457Z,13.43
2024-05-09T02:25:35.016Z,13.45
2024-05-09T02:28:02.364Z,14.02
2024-05-09T02:30:38.633Z,13.10
2024-05-09T02:33:13.571Z,14.40
2024-05-09T02:35:43.336Z,13.68
2024-05-09T02:38:11.861Z,13.13
2024-05-09T02:40:40.228Z,14.30
2024-05-09T02:43:10.144Z,15.55
2024-05-09T02:45:41.799Z,13.93
2024-05-09T02:48:13.530Z,13.25
2024-05-09T02:50:42.056Z,14.70
2024-05-09T02:53:10.200Z,12.95
2024-05-09T02:55:40.793Z,13.65
2024-05-09T02:58:08.331Z,13.32
2024-05-09T03:00:39.891Z,12.32
2024-05-09T03:03:12.508Z,13.43
2024-05-09T03:05:42.178Z,14.52
2024-05-09T03:08:09.903Z,12.68
2024-05-09T03:10:38.895Z,13.60
2024-05-09T03:13:15.308Z,14.20
2024-05-09T03:15:44.238Z,13.20
2024-05-09T03:18:12.511Z,12.15
2024-05-09T03:20:40.398Z,13.15
2024-05-09T03:23:09.712Z,14.65
2024-05-09T03:25:37.961Z,14.63
2024-05-09T03:28:05.656Z,13.60
2024-05-09T03:30:40.139Z,13.27
2024-05-09T03:33:19.153Z,13.40
2024-05-09T03:35:48.424Z,13.40
2024-05-09T03:38:16.321Z,14.25
2024-05-09T03:40:50.596Z,14.15
2024-05-09T03:43:19.424Z,14.93
2024-05-09T03:45:49.540Z,14.05
2024-05-09T03:48:17.330Z,14.45
2024-05-09T03:50:44.911Z,13.93
2024-05-09T03:53:14.094Z,14.10
2024-05-09T03:55:41.706Z,14.88
2024-05-09T03:58:09.473Z,14.65
2024-05-09T04:00:39.387Z,15.23
2024-05-09T04:03:10.327Z,16.05
2024-05-09T04:05:41.467Z,14.73
2024-05-09T04:08:10.568Z,14.70
2024-05-09T04:10:38.202Z,15.23
2024-05-09T04:13:05.656Z,15.18
2024-05-09T04:15:33.195Z,16.15
2024-05-09T04:18:01.267Z,14.88
2024-05-09T04:20:37.100Z,14.93
2024-05-09T04:23:08.347Z,15.50
2024-05-09T04:25:37.386Z,15.00
2024-05-09T04:28:05.463Z,14.52
2024-05-09T04:30:38.604Z,14.77
2024-05-09T04:33:11.932Z,14.30
2024-05-09T04:35:45.028Z,13.40
2024-05-09T04:38:14.455Z,15.23
2024-05-09T04:40:42.387Z,15.25
2024-05-09T04:43:16.170Z,15.18
2024-05-09T04:45:43.754Z,16.05
2024-05-09T04:48:11.588Z,13.40
2024-05-09T04:50:39.849Z,15.73
2024-05-09T04:53:11.546Z,16.05
2024-05-09T04:55:40.072Z,13.18
2024-05-09T04:58:09.253Z,14.45
2024-05-09T05:00:38.878Z,14.50
2024-05-09T05:03:10.861Z,16.20
2024-05-09T05:05:41.463Z,15.43
2024-05-09T05:08:17.315Z,15.13
2024-05-09T05:10:47.087Z,16.92
2024-05-09T05:13:25.167Z,15.43
2024-05-09T05:15:57.502Z,15.50
2024-05-09T05:18:28.940Z,13.10
2024-05-09T05:20:57.251Z,13.85
2024-05-09T05:23:25.286Z,15.13
2024-05-09T05:25:55.297Z,16.52
2024-05-09T05:28:23.394Z,15.32
2024-05-09T05:30:50.840Z,16.13
2024-05-09T05:33:18.955Z,15.02
2024-05-09T05:35:46.933Z,15.65
2024-05-09T05:38:14.488Z,14.30
2024-05-09T05:40:41.921Z,15.40
2024-05-09T05:43:15.934Z,14.30
2024-05-09T05:45:44.058Z,15.13
2024-05-09T05:48:11.709Z,16.35
2024-05-09T05:50:39.156Z,14.68
2024-05-09T05:53:08.390Z,16.80
2024-05-09T05:55:37.055Z,16.55
2024-05-09T05:58:04.572Z,15.55
2024-05-09T06:00:38.469Z,15.70
2024-05-09T06:03:08.597Z,15.63
2024-05-09T06:05:37.605Z,17.20
2024-05-09T06:08:05.394Z,16.00
2024-05-09T06:10:38.294Z,16.88
2024-05-09T06:13:10.455Z,16.83
2024-05-09T06:15:37.931Z,16.48
2024-05-09T06:18:06.814Z,16.75
2024-05-09T06:20:37.021Z,16.30
2024-05-09T06:23:10.079Z,18.20
2024-05-09T06:25:38.567Z,16.02
2024-05-09T06:28:06.522Z,16.48
2024-05-09T06:30:40.083Z,18.00
2024-05-09T06:33:11.806Z,15.77
2024-05-09T06:35:41.308Z,16.15
2024-05-09T06:38:09.552Z,14.45
2024-05-09T06:40:40.089Z,14.75
2024-05-09T06:43:17.781Z,15.80
2024-05-09T06:45:49.926Z,15.32
2024-05-09T06:48:21.040Z,15.65
2024-05-09T06:50:49.401Z,17.10
2024-05-09T06:53:17.811Z,16.27
2024-05-09T06:55:45.295Z,16.52
2024-05-09T06:58:12.899Z,14.85
2024-05-09T07:00:41.754Z,15.38
2024-05-09T07:03:16.980Z,15.50
2024-05-09T07:05:47.244Z,15.23
2024-05-09T07:08:15.932Z,14.55
2024-05-09T07:10:43.672Z,14.77
2024-05-09T07:13:12.364Z,13.70
2024-05-09T07:15:40.757Z,14.35
2024-05-09T07:18:19.968Z,15.90
2024-05-09T07:20:49.712Z,15.35
2024-05-09T07:23:18.447Z,14.88
2024-05-09T07:25:46.158Z,13.73
2024-05-09T07:28:18.672Z,14.07
2024-05-09T07:30:46.371Z,13.45
2024-05-09T07:33:23.149Z,13.65
2024-05-09T07:35:51.981Z,12.93
2024-05-09T07:38:19.499Z,12.80
2024-05-09T07:40:47.056Z,11.93
2024-05-09T07:43:14.976Z,13.60
2024-05-09T07:45:51.111Z,13.40
2024-05-09T07:52:37.731Z,12.70
2024-05-09T07:53:47.672Z,12.85
2024-05-09T07:56:19.915Z,14.23
2024-05-09T07:58:50.900Z,12.73
2024-05-09T08:01:19.203Z,13.52
2024-05-09T08:03:49.536Z,12.80
2024-05-09T08:06:17.042Z,13.45
2024-05-09T08:08:46.583Z,12.20
2024-05-09T08:11:13.867Z,13.48
2024-05-09T08:13:41.318Z,13.45
2024-05-09T08:16:09.955Z,14.55
2024-05-09T08:18:37.515Z,12.82
2024-05-09T08:21:05.176Z,14.60
2024-05-09T08:23:32.685Z,14.07
2024-05-09T08:26:00.047Z,14.18
2024-05-09T08:28:28.111Z,13.07
2024-05-09T08:30:56.910Z,12.68
2024-05-09T08:33:24.426Z,12.77
2024-05-09T08:35:54.282Z,13.43
2024-05-09T08:38:21.604Z,13.15
2024-05-09T08:40:49.487Z,13.63
2024-05-09T08:43:20.154Z,12.73
2024-05-09T08:45:50.215Z,12.80
2024-05-09T08:48:20.280Z,12.52
2024-05-09T08:50:50.759Z,13.95
2024-05-09T08:53:18.097Z,13.10
2024-05-09T08:55:46.934Z,14.15
2024-05-09T08:58:16.959Z,13.52
2024-05-09T09:00:46.000Z,13.25
2024-05-09T09:03:17.938Z,13.15
2024-05-09T09:05:59.500Z,12.95
2024-05-09T09:08:26.988Z,12.60
2024-05-09T09:10:58.280Z,12.50
2024-05-09T09:13:29.008Z,11.88
2024-05-09T09:16:00.044Z,11.63
2024-05-09T09:18:28.654Z,12.35
2024-05-09T09:20:56.799Z,11.73
2024-05-09T09:23:24.110Z,11.50
2024-05-09T09:25:52.075Z,11.60
2024-05-09T09:28:23.225Z,10.73
2024-05-09T09:30:50.878Z,10.45
2024-05-09T09:33:19.090Z,11.02
2024-05-09T09:35:46.679Z,11.00
2024-05-09T09:38:23.123Z,10.75
2024-05-09T09:40:51.193Z,10.93
2024-05-09T09:43:20.933Z,10.85
2024-05-09T09:45:53.389Z,10.82
2024-05-09T09:48:22.643Z,11.60
2024-05-09T09:50:51.967Z,10.93
2024-05-09T09:53:20.152Z,10.52
2024-05-09T09:55:47.496Z,10.63
2024-05-09T09:58:16.655Z,10.32
2024-05-09T10:00:45.134Z,9.95
2024-05-09T10:03:13.571Z,10.15
2024-05-09T10:05:45.022Z,9.80
2024-05-09T10:08:15.981Z,9.93
2024-05-09T10:10:47.937Z,10.25
2024-05-09T10:13:16.326Z,12.63
2024-05-09T10:15:48.559Z,11.30
2024-05-09T10:18:16.429Z,10.93
2024-05-09T10:20:45.125Z,10.85
2024-05-09T10:23:30.313Z,10.85
2024-05-09T10:25:59.126Z,11.23
2024-05-09T10:28:33.318Z,10.73
2024-05-09T10:31:08.851Z,10.85
2024-05-09T10:33:50.070Z,10.07
2024-05-09T10:36:22.816Z,10.57
2024-05-09T10:38:50.661Z,10.75
2024-05-09T10:41:19.184Z,10.48
2024-05-09T10:43:47.673Z,11.50
2024-05-09T10:46:16.942Z,9.15
2024-05-09T10:48:44.689Z,10.15
2024-05-09T10:51:13.707Z,8.73
2024-05-09T10:53:46.051Z,10.35
2024-05-09T10:56:17.216Z,10.48
2024-05-09T10:58:45.653Z,12.73
2024-05-09T11:01:14.084Z,11.23
2024-05-09T11:03:41.876Z,9.43
2024-05-09T11:06:09.975Z,10.15
2024-05-09T11:08:38.286Z,8.95
2024-05-09T11:11:08.125Z,9.77
2024-05-09T11:13:38.010Z,10.52
2024-05-09T11:16:07.852Z,9.75
2024-05-09T11:18:38.225Z,9.43
2024-05-09T11:21:13.835Z,9.98
2024-05-09T11:23:41.713Z,9.90
2024-05-09T11:26:10.873Z,10.30
2024-05-09T11:28:38.341Z,9.93
2024-05-09T11:31:10.706Z,9.90
2024-05-09T11:33:39.917Z,10.23
2024-05-09T11:36:08.807Z,10.82
2024-05-09T11:38:36.436Z,9.23
2024-05-09T11:41:05.060Z,9.43
2024-05-09T11:43:32.756Z,9.18
2024-05-09T11:46:00.506Z,8.95
2024-05-09T11:48:28.163Z,7.53
2024-05-09T11:50:57.529Z,8.23
2024-05-09T11:53:24.824Z,7.93
2024-05-09T11:55:52.111Z,8.68
2024-05-09T11:58:21.405Z,8.80
2024-05-09T12:00:49.045Z,8.85
2024-05-09T12:03:16.704Z,8.05
2024-05-09T12:05:44.162Z,8.73
2024-05-09T12:08:11.615Z,8.10
2024-05-09T12:10:39.174Z,6.97
2024-05-09T12:13:07.414Z,7.80
2024-05-09T12:15:39.030Z,7.25
2024-05-09T12:18:08.092Z,7.30
2024-05-09T12:20:39.192Z,7.38
2024-05-09T12:23:09.969Z,7.50
2024-05-09T12:25:39.164Z,8.18
2024-05-09T12:28:07.631Z,8.45
2024-05-09T12:30:39.781Z,8.68
2024-05-09T12:33:12.712Z,8.93
2024-05-09T12:35:44.098Z,9.23
2024-05-09T12:38:18.370Z,8.55
2024-05-09T12:40:45.672Z,8.27
2024-05-09T12:43:13.063Z,9.18
2024-05-09T12:45:40.915Z,8.63
2024-05-09T12:48:12.173Z,8.68
2024-05-09T12:50:41.644Z,8.10
2024-05-09T12:53:09.363Z,6.78
2024-05-09T12:55:44.249Z,6.80
2024-05-09T12:58:21.934Z,8.13
2024-05-09T13:00:49.804Z,8.50
2024-05-09T13:03:17.374Z,7.60
2024-05-09T13:05:45.471Z,7.40
2024-05-09T13:08:13.979Z,5.93
2024-05-09T13:10:41.780Z,6.15
2024-05-09T13:13:12.337Z,6.85
2024-05-09T13:15:40.076Z,7.28
2024-05-09T13:18:07.838Z,7.28
2024-05-09T13:20:37.095Z,7.10
2024-05-09T13:23:07.018Z,6.82
2024-05-09T13:25:35.510Z,8.15
2024-05-09T13:28:04.050Z,7.57
2024-05-09T13:30:39.300Z,7.22
2024-05-09T13:33:13.930Z,7.78
2024-05-09T13:35:47.200Z,9.13
2024-05-09T13:38:19.073Z,7.30
2024-05-09T13:40:47.209Z,6.30
2024-05-09T13:43:14.862Z,8.43
2024-05-09T13:45:42.758Z,7.55
2024-05-09T13:48:10.657Z,9.07
2024-05-09T13:50:39.185Z,8.93
2024-05-09T13:53:07.863Z,9.20
2024-05-09T13:55:38.621Z,8.45
2024-05-09T13:58:07.118Z,9.05
2024-05-09T14:00:44.283Z,8.60
2024-05-09T14:03:16.634Z,8.95
2024-05-09T14:05:45.702Z,7.70
2024-05-09T14:08:15.362Z,9.05
2024-05-09T14:10:45.074Z,9.27
2024-05-09T14:13:13.364Z,8.57
2024-05-09T14:15:41.196Z,7.35
2024-05-09T14:18:12.439Z,9.10
2024-05-09T14:20:41.139Z,8.33
2024-05-09T14:23:08.469Z,8.48
2024-05-09T14:25:39.910Z,8.38
2024-05-09T14:30:38.334Z,8.23
2024-05-09T14:33:07.825Z,9.32
2024-05-09T14:35:37.797Z,8.88
2024-05-09T14:38:06.611Z,9.25
2024-05-09T14:40:40.896Z,8.90
2024-05-09T14:43:15.352Z,8.55
2024-05-09T14:45:43.870Z,8.52
2024-05-09T14:48:12.517Z,8.27
2024-05-09T14:50:40.867Z,7.97
2024-05-09T14:53:10.298Z,7.57
2024-05-09T14:55:39.967Z,7.85
2024-05-09T14:58:09.542Z,7.70
2024-05-09T15:00:46.013Z,6.50
2024-05-09T15:03:17.774Z,6.93
2024-05-09T15:05:45.801Z,7.10
2024-05-09T15:08:13.335Z,7.72
2024-05-09T15:10:40.990Z,7.50
2024-05-09T15:13:10.392Z,8.30
2024-05-09T15:15:40.347Z,7.10
2024-05-09T15:18:07.907Z,8.13
2024-05-09T15:20:37.164Z,6.50
2024-05-09T15:23:07.075Z,7.78
2024-05-09T15:25:36.255Z,6.85
2024-05-09T15:28:07.632Z,7.35
2024-05-09T15:30:35.608Z,7.30
2024-05-09T15:33:04.170Z,7.82
2024-05-09T15:35:32.255Z,7.13
2024-05-09T15:38:00.397Z,7.18
2024-05-09T15:40:37.222Z,7.07
2024-05-09T15:43:08.865Z,7.13
2024-05-09T15:45:37.600Z,7.63
2024-05-09T15:48:06.015Z,7.55
2024-05-09T15:50:38.849Z,8.02
2024-05-09T15:53:10.119Z,7.65
2024-05-09T15:55:38.776Z,7.57
2024-05-09T15:58:07.416Z,7.40
2024-05-09T16:00:39.410Z,8.27
2024-05-09T16:03:14.298Z,7.97
2024-05-09T16:05:46.160Z,7.43
2024-05-09T16:08:15.323Z,7.55
2024-05-09T16:10:45.996Z,7.20
2024-05-09T16:13:14.626Z,8.70
2024-05-09T16:15:43.092Z,7.63
2024-05-09T16:18:10.946Z,7.22
2024-05-09T16:20:41.193Z,7.40
2024-05-09T16:23:10.387Z,7.80
2024-05-09T16:25:38.205Z,7.88
2024-05-09T16:28:09.722Z,8.73
2024-05-09T16:30:39.828Z,8.40
2024-05-09T16:33:08.626Z,8.32
2024-05-09T16:35:37.416Z,9.23
2024-05-09T16:38:05.952Z,9.07
2024-05-09T16:40:38.286Z,9.93
2024-05-09T16:43:12.540Z,10.23
2024-05-09T16:45:41.918Z,10.25
2024-05-09T16:48:09.563Z,9.90
2024-05-09T16:50:37.164Z,10.38
2024-05-09T16:53:05.837Z,9.32
2024-05-09T16:55:34.378Z,10.60
2024-05-09T16:58:02.486Z,9.57
2024-05-09T17:00:39.384Z,9.85
2024-05-09T17:03:11.919Z,9.77
2024-05-09T17:05:40.655Z,9.93
2024-05-09T17:08:08.650Z,9.90
2024-05-09T17:10:36.631Z,9.32
2024-05-09T17:13:06.256Z,10.43
2024-05-09T17:15:35.473Z,10.48
2024-05-09T17:18:03.768Z,12.07
2024-05-09T17:20:34.746Z,10.45
2024-05-09T17:23:06.041Z,11.27
2024-05-09T17:25:34.433Z,11.60
2024-05-09T17:28:07.580Z,11.85
2024-05-09T17:30:38.207Z,10.73
2024-05-09T17:33:09.574Z,10.52
2024-05-09T17:35:38.143Z,10.48
2024-05-09T17:38:06.582Z,9.40
2024-05-09T17:40:36.671Z,11.32
2024-05-09T17:43:06.953Z,10.98
2024-05-09T17:45:40.352Z,12.07
2024-05-09T17:48:10.357Z,11.30
2024-05-09T17:50:38.746Z,10.40
2024-05-09T17:53:06.837Z,12.52
2024-05-09T17:55:34.540Z,11.25
2024-05-09T17:58:02.482Z,12.10
2024-05-09T18:00:37.630Z,11.77
2024-05-09T18:03:10.583Z,13.35
2024-05-09T18:05:38.565Z,11.88
2024-05-09T18:08:09.432Z,11.60
2024-05-09T18:10:39.696Z,11.35
2024-05-09T18:13:08.951Z,12.75
2024-05-09T18:15:36.951Z,12.20
2024-05-09T18:18:05.448Z,12.48
2024-05-09T18:20:41.604Z,13.23
2024-05-09T18:23:13.974Z,13.35
2024-05-09T18:25:42.064Z,12.13
2024-05-09T18:28:09.580Z,12.57
2024-05-09T18:30:37.599Z,12.55
2024-05-09T18:33:11.234Z,13.43
2024-05-09T18:35:39.168Z,12.77
2024-05-09T18:38:06.497Z,12.95
2024-05-09T18:40:36.714Z,11.95
2024-05-09T18:43:07.990Z,11.65
2024-05-09T18:45:38.188Z,10.48
2024-05-09T18:48:07.339Z,11.40
2024-05-09T18:50:38.591Z,11.05
2024-05-09T18:53:08.317Z,11.32
2024-05-09T18:55:36.213Z,10.70
2024-05-09T18:58:05.043Z,10.63
2024-05-09T19:00:36.386Z,10.90
2024-05-09T19:03:12.355Z,10.98
2024-05-09T19:05:43.011Z,9.48
2024-05-09T19:08:11.389Z,10.02
2024-05-09T19:10:39.620Z,9.77
2024-05-09T19:13:12.874Z,10.38
2024-05-09T19:15:42.675Z,10.57
2024-05-09T19:18:11.809Z,10.43
2024-05-09T19:20:39.644Z,10.07
2024-05-09T19:23:07.587Z,11.18
2024-05-09T19:25:36.611Z,11.77
2024-05-09T19:28:05.611Z,11.02
2024-05-09T19:30:38.943Z,11.50
2024-05-09T19:33:10.343Z,11.52
2024-05-09T19:35:38.852Z,10.48
2024-05-09T19:38:06.660Z,10.82
2024-05-09T19:40:35.196Z,9.48
2024-05-09T19:43:05.265Z,9.32
2024-05-09T19:45:34.585Z,9.27
2024-05-09T19:48:03.101Z,10.00
2024-05-09T19:50:37.399Z,10.70
2024-05-09T19:53:11.249Z,10.23
2024-05-09T19:55:39.037Z,9.70
2024-05-09T19:58:07.558Z,10.18
2024-05-09T20:00:38.620Z,10.75
2024-05-09T20:03:08.604Z,11.75
2024-05-09T20:05:36.768Z,10.77
2024-05-09T20:08:04.972Z,10.65
2024-05-09T20:10:34.628Z,10.10
2024-05-09T20:13:04.331Z,10.85
2024-05-09T20:15:34.102Z,10.95
2024-05-09T20:18:01.825Z,9.88
2024-05-09T20:20:37.311Z,9.73
2024-05-09T20:23:09.087Z,11.63
2024-05-09T20:25:36.617Z,11.55
2024-05-09T20:28:04.259Z,10.52
2024-05-09T20:30:34.594Z,11.93
2024-05-09T20:33:04.935Z,9.98
2024-05-09T20:35:33.613Z,11.02
2024-05-09T20:38:02.022Z,9.35
2024-05-09T20:40:34.602Z,10.27
2024-05-09T20:43:06.834Z,10.93
2024-05-09T20:45:34.968Z,11.63
2024-05-09T20:48:02.757Z,11.02
2024-05-09T20:50:37.498Z,10.20
2024-05-09T20:53:10.893Z,11.63
2024-05-09T20:55:38.669Z,9.80
2024-05-09T20:58:06.107Z,10.88
2024-05-09T21:00:40.003Z,11.00
2024-05-09T21:03:11.698Z,12.15
2024-05-09T21:05:40.003Z,11.95
2024-05-09T21:08:08.030Z,11.98
2024-05-09T21:10:37.095Z,11.82
2024-05-09T21:13:05.466Z,11.40
2024-05-09T21:15:33.681Z,12.43
2024-05-09T21:18:01.133Z,11.80
2024-05-09T21:20:31.576Z,12.15
2024-05-09T21:23:01.305Z,13.63
2024-05-09T21:25:28.989Z,13.13
2024-05-09T21:27:56.245Z,11.43
2024-05-09T21:30:32.607Z,11.95
2024-05-09T21:33:14.717Z,12.30
2024-05-09T21:35:44.622Z,13.38
2024-05-09T21:38:13.915Z,12.98
2024-05-09T21:40:41.456Z,13.55
2024-05-09T21:43:08.909Z,13.52
2024-05-09T21:45:37.262Z,13.95
2024-05-09T21:48:06.020Z,13.98
2024-05-09T21:50:39.777Z,14.07
2024-05-09T21:53:09.834Z,14.25
2024-05-09T21:55:37.146Z,14.40
2024-05-09T21:58:04.577Z,14.05
2024-05-09T22:00:36.673Z,15.40
2024-05-09T22:03:10.883Z,13.80
2024-05-09T22:05:42.073Z,15.48
2024-05-09T22:08:10.137Z,15.43
2024-05-09T22:10:37.704Z,15.65
2024-05-09T22:13:06.494Z,15.35
2024-05-09T22:15:39.583Z,15.60
2024-05-09T22:20:43.712Z,15.15
2024-05-09T22:23:12.308Z,16.20
2024-05-09T22:25:39.693Z,15.85
2024-05-09T22:28:07.364Z,15.75
2024-05-09T22:30:38.416Z,16.02
2024-05-09T22:33:09.888Z,17.02
2024-05-09T22:35:38.577Z,16.42
2024-05-09T22:38:06.083Z,16.20
2024-05-09T22:40:43.004Z,15.93
2024-05-09T22:43:23.728Z,16.52
2024-05-09T22:45:55.057Z,17.35
2024-05-09T22:48:24.222Z,17.27
2024-05-09T22:50:52.617Z,18.33
2024-05-09T22:53:23.837Z,17.15
2024-05-09T22:55:51.252Z,18.42
2024-05-09T22:58:19.308Z,16.42
2024-05-09T23:00:46.874Z,17.40
2024-05-09T23:03:16.611Z,16.98
2024-05-09T23:05:44.118Z,17.08
2024-05-09T23:08:11.394Z,17.58
2024-05-09T23:10:38.877Z,16.90
2024-05-09T23:13:07.970Z,17.90
2024-05-09T23:15:37.851Z,17.25
2024-05-09T23:18:05.668Z,17.30
2024-05-09T23:20:37.917Z,18.08
2024-05-09T23:23:08.819Z,17.77
2024-05-09T23:25:37.255Z,18.25
2024-05-09T23:28:05.030Z,18.77
2024-05-09T23:30:38.000Z,18.83
2024-05-09T23:33:08.838Z,18.15
2024-05-09T23:35:36.387Z,19.02
2024-05-09T23:38:03.949Z,17.92
2024-05-09T23:40:38.474Z,17.27
2024-05-09T23:43:09.385Z,18.35
2024-05-09T23:45:37.276Z,17.88
2024-05-09T23:48:05.297Z,18.42
2024-05-09T23:50:37.177Z,19.65
2024-05-09T23:53:08.056Z,19.67
2024-05-09T23:55:36.689Z,20.75
2024-05-09T23:58:04.207Z,21.25
